• Join FlightAware (Why Join?)
  • Login
  • US Flag 
11:04AM EDT


 

Airport Tracker/Info


-or-


 

Live Flight TrackerFlight Track Log ✈ JTL732 ✈ 09-May-2013 ✈ KLEX - KEDC

Flight Track Log - Related Links

Times and Time Zones

All times are in EDT time to prevent confusion due to time zone crossing. See the JTL732 flight status page for this flight to view local times or setup timezone preferences in your user account.

Time Position Orientation Groundspeed Altitude Reporting Facility
EDT Latitude Longitude Course Direction KTS MPH feet Rate Location/Type
05:23PM 37.8990 -84.9190 245° Southwest 337 388 13,300  Level FlightAware
05:23PM 37.8720 -84.9970 246° West 358 412 14,000 480 Climbing FlightAware
05:24PM 37.8480 -85.0650 246° West 359 413 14,000  Level FlightAware
05:25PM 37.8150 -85.1590 246° West 360 414 14,000  Level FlightAware
05:26PM 37.7840 -85.2460 246° West 357 411 14,000  Level FlightAware
05:26PM 37.7580 -85.3210 246° West 356 410 14,000  Level FlightAware
05:27PM 37.7310 -85.3980 246° West 355 409 14,000 1,500 Level FlightAware
05:28PM 37.7050 -85.4720 246° West 335 386 16,000 3,360 Climbing FlightAware
05:28PM 37.6760 -85.5510 245° Southwest 316 364 18,800 3,360 Climbing FlightAware
05:29PM 37.6520 -85.6190 246° West 314 361 20,800 2,700 Climbing FlightAware
05:30PM 37.6270 -85.6900 246° West 314 361 22,700 1,680 Climbing FlightAware
05:30PM 37.5980 -85.7600 242° Southwest 350 403 23,200 1,680 Climbing FlightAware
05:31PM 37.5620 -85.8430 241° Southwest 342 394 25,100 2,520 Climbing FlightAware
05:32PM 37.5320 -85.9120 241° Southwest 336 387 26,800 2,460 Climbing FlightAware
05:32PM 37.5040 -85.9790 242° Southwest 330 380 28,400 2,280 Climbing FlightAware
05:33PM 37.4740 -86.0500 242° Southwest 327 376 30,100 2,160 Climbing FlightAware
05:34PM 37.4440 -86.1220 242° Southwest 333 383 31,500 1,920 Climbing FlightAware
05:35PM 37.4120 -86.1970 242° Southwest 337 388 32,900 1,500 Climbing FlightAware
05:35PM 37.3810 -86.2700 242° Southwest 355 409 33,700 780 Climbing FlightAware
05:36PM 37.3480 -86.3470 242° Southwest 382 440 34,000 180 Climbing FlightAware
05:37PM 37.3080 -86.4410 242° Southwest 410 472 34,000 600 Level FlightAware
05:37PM 37.2720 -86.5250 242° Southwest 405 466 34,900 1,800 Climbing FlightAware
05:38PM 37.2350 -86.6110 242° Southwest 385 443 36,600 1,800 Climbing FlightAware
05:39PM 37.2010 -86.6880 241° Southwest 380 437 37,500 1,500 Climbing FlightAware
05:39PM 37.1824 -86.7321 242° Southwest 377 434 38,100 1,560 Climbing FlightAware ADS-B
05:40PM 37.1522 -86.8021 242° Southwest 375 432 39,000 1,020 Climbing FlightAware ADS-B
05:41PM 37.1000 -86.9230 242° Southwest 364 419 40,000 660 Climbing FlightAware
05:41PM 37.0827 -86.9619 241° Southwest 370 426 40,000  Level FlightAware ADS-B
05:42PM 37.0280 -87.0860 241° Southwest 384 442 40,000 240 Level FlightAware
05:43PM 36.9890 -87.1760 242° Southwest 380 437 40,500 720 Climbing FlightAware
05:44PM 36.9550 -87.2540 241° Southwest 372 428 41,100 960 Climbing FlightAware
05:44PM 36.9230 -87.3270 241° Southwest 364 419 41,800 960 Climbing FlightAware
05:45PM 36.8870 -87.4080 241° Southwest 356 410 42,500 900 Climbing FlightAware
05:46PM 36.8610 -87.4660 241° Southwest 352 405 43,000 300 Climbing FlightAware
05:47PM 36.8180 -87.5630 241° Southwest 365 420 43,000  Level FlightAware
05:47PM 36.7850 -87.6380 241° Southwest 373 429 43,000  Level FlightAware
05:48PM 36.7510 -87.7140 241° Southwest 379 436 43,000  Level FlightAware
05:49PM 36.7130 -87.7990 241° Southwest 375 432 43,000  Level FlightAware
05:49PM 36.6790 -87.8760 241° Southwest 372 428 43,000  Level FlightAware
05:50PM 36.6410 -87.9610 241° Southwest 370 426 43,000  Level FlightAware
05:51PM 36.6070 -88.0350 240° Southwest 369 425 43,000  Level FlightAware
05:51PM 36.5740 -88.1090 241° Southwest 370 426 43,000  Level FlightAware
05:52PM 36.5370 -88.1910 241° Southwest 371 427 43,000  Level FlightAware
05:53PM 36.5030 -88.2660 241° Southwest 371 427 43,000  Level FlightAware
05:53PM 36.4690 -88.3400 240° Southwest 370 426 43,000  Level FlightAware
05:54PM 36.4310 -88.4240 241° Southwest 370 426 43,000  Level FlightAware
05:55PM 36.3890 -88.5160 240° Southwest 370 426 43,000  Level FlightAware
05:56PM 36.3520 -88.5960 240° Southwest 370 426 43,000  Level FlightAware
05:56PM 36.3220 -88.6630 241° Southwest 371 427 43,000  Level FlightAware
05:57PM 36.2890 -88.7350 240° Southwest 371 427 43,000  Level FlightAware
05:58PM 36.2520 -88.8130 240° Southwest 371 427 43,000  Level FlightAware
05:59PM 36.2230 -88.8760 240° Southwest 371 427 43,000  Level FlightAware
05:59PM 36.1940 -88.9380 240° Southwest 371 427 43,000  Level FlightAware
06:00PM 36.1650 -89.0010 240° Southwest 371 427 43,000  Level FlightAware
06:01PM 36.1350 -89.0640 239° Southwest 371 427 43,000  Level FlightAware
06:01PM 36.0990 -89.1420 240° Southwest 371 427 43,000  Level FlightAware
06:02PM 36.0700 -89.2040 240° Southwest 371 427 43,000  Level FlightAware
06:03PM 36.0410 -89.2670 240° Southwest 371 427 43,000  Level FlightAware
06:03PM 36.0110 -89.3290 239° Southwest 371 427 43,000  Level FlightAware
06:04PM 35.9820 -89.3920 240° Southwest 371 427 43,000  Level FlightAware
06:05PM 35.9460 -89.4700 240° Southwest 371 427 43,000  Level FlightAware
06:06PM 35.9170 -89.5320 240° Southwest 371 427 43,000  Level FlightAware
06:06PM 35.8870 -89.5950 240° Southwest 371 427 43,000  Level FlightAware
06:07PM 35.7364 -89.8814 240° Southwest 387 445 43,000  Level Memphis Center
06:08PM 35.6783 -89.9942 238° Southwest 387 445 43,000  Level Memphis Center
06:09PM 35.6369 -90.0939 243° Southwest 381 438 43,000  Level Memphis Center
06:10PM 35.5767 -90.2117 238° Southwest 393 452 43,000  Level Memphis Center
06:11PM 35.5183 -90.3264 238° Southwest 393 452 43,000  Level Memphis Center
06:12PM 35.4619 -90.4411 239° Southwest 398 458 43,000  Level Memphis Center
06:13PM 35.3994 -90.5633 238° Southwest 403 464 43,000  Level Memphis Center
06:14PM 35.3386 -90.6778 237° Southwest 403 464 43,000  Level Memphis Center
06:15PM 35.2819 -90.7919 239° Southwest 403 464 43,000  Level Memphis Center
06:16PM 35.2231 -90.9061 238° Southwest 403 464 43,000  Level Memphis Center
06:17PM 35.1664 -91.0175 238° Southwest 403 464 43,000  Level Memphis Center
06:18PM 35.1072 -91.1311 238° Southwest 403 464 43,000  Level Memphis Center
06:19PM 35.0481 -91.2450 238° Southwest 403 464 43,000  Level Memphis Center
06:20PM 34.9908 -91.3583 238° Southwest 408 470 43,000  Level Memphis Center
06:21PM 34.9358 -91.4539 235° Southwest 408 470 43,000  Level Memphis Center
06:22PM 34.8719 -91.5822 239° Southwest 403 464 43,000  Level Memphis Center
06:23PM 34.8103 -91.6950 236° Southwest 409 471 43,000  Level Memphis Center
06:24PM 34.7592 -91.7906 237° Southwest 404 465 43,000  Level Memphis Center
06:25PM 34.6994 -91.9006 237° Southwest 399 459 43,000  Level Memphis Center
06:26PM 34.6375 -92.0156 237° Southwest 399 459 43,000  Level Memphis Center
06:27PM 34.5775 -92.1278 237° Southwest 399 459 43,000  Level Memphis Center
06:28PM 34.5197 -92.2375 237° Southwest 399 459 43,000  Level Memphis Center
06:29PM 34.4617 -92.3472 237° Southwest 399 459 43,000  Level Memphis Center
06:30PM 34.4014 -92.4564 236° Southwest 399 459 43,000  Level Memphis Center
06:31PM 34.3431 -92.5683 238° Southwest 399 459 43,000  Level Memphis Center
06:32PM 34.2767 -92.6697 232° Southwest 399 459 43,000  Level Memphis Center
06:33PM 34.2075 -92.7858 234° Southwest 394 453 43,000  Level Memphis Center
06:39PM 33.8310 -93.3657 234° Southwest 377 434 43,000  Level FlightAware ADS-B
06:44PM 33.5049 -93.8656 232° Southwest 355 409 43,000  Level FlightAware ADS-B
06:46PM 33.3690 -94.0720 232° Southwest 343 395 43,000  Level FlightAware
06:47PM 33.3290 -94.1320 231° Southwest 342 394 43,000  Level FlightAware
06:48PM 33.2860 -94.1970 232° Southwest 338 389 43,000  Level FlightAware
06:48PM 33.2782 -94.2092 233° Southwest 340 391 43,000  Level FlightAware ADS-B
06:48PM 33.2474 -94.2558 232° Southwest 340 391 43,000  Level FlightAware ADS-B
06:49PM 33.1960 -94.3330 232° Southwest 338 389 43,000  Level FlightAware
06:50PM 33.1620 -94.3820 230° Southwest 338 389 43,000  Level FlightAware
06:51PM 33.1290 -94.4320 232° Southwest 338 389 43,000  Level FlightAware
06:51PM 33.0950 -94.4810 230° Southwest 338 389 43,000  Level FlightAware
06:52PM 33.0530 -94.5430 231° Southwest 338 389 43,000  Level FlightAware
06:53PM 32.9900 -94.6420 233° Southwest 338 389 43,000  Level FlightAware
06:54PM 32.9530 -94.6960 231° Southwest 338 389 43,000  Level FlightAware
06:54PM 32.9060 -94.7670 232° Southwest 333 383 43,000  Level FlightAware
06:55PM 32.8540 -94.8430 231° Southwest 330 380 43,000  Level FlightAware
06:56PM 32.8220 -94.8910 232° Southwest 330 380 43,000  Level FlightAware
06:57PM 32.7720 -94.9660 232° Southwest 323 372 43,000  Level FlightAware
06:57PM 32.7282 -95.0301 231° Southwest 323 372 43,000  Level FlightAware ADS-B
06:58PM 32.6995 -95.0725 231° Southwest 321 369 43,000  Level FlightAware ADS-B
06:59PM 32.6568 -95.1354 231° Southwest 319 367 43,000  Level FlightAware ADS-B
06:59PM 32.6285 -95.1770 231° Southwest 318 366 43,000  Level FlightAware ADS-B
07:00PM 32.6005 -95.2182 231° Southwest 318 366 43,000  Level FlightAware ADS-B
07:00PM 32.5724 -95.2595 231° Southwest 317 365 43,000  Level FlightAware ADS-B
07:01PM 32.5408 -95.3058 231° Southwest 319 367 43,000  Level FlightAware ADS-B
07:01PM 32.5123 -95.3474 231° Southwest 318 366 43,000  Level FlightAware ADS-B
07:01PM 32.5024 -95.3621 231° Southwest 317 365 43,000  Level FlightAware ADS-B
07:02PM 32.4922 -95.3832 240° Southwest 317 365 43,000  Level FlightAware ADS-B
07:02PM 32.4706 -95.4357 244° Southwest 318 366 43,000  Level FlightAware ADS-B
07:03PM 32.4510 -95.4840 244° Southwest 317 365 43,000  Level FlightAware
07:03PM 32.4398 -95.5128 245° Southwest 319 367 43,000  Level FlightAware ADS-B
07:04PM 32.4153 -95.5754 245° Southwest 317 365 43,000  Level FlightAware ADS-B
07:05PM 32.3920 -95.6330 244° Southwest 317 365 43,000  Level FlightAware
07:05PM 32.3706 -95.6864 245° Southwest 319 367 43,000  Level FlightAware ADS-B
07:05PM 32.3498 -95.7373 244° Southwest 318 366 43,000  Level FlightAware ADS-B
07:06PM 32.3248 -95.7987 244° Southwest 317 365 43,000  Level FlightAware ADS-B
07:07PM 32.2898 -95.8796 243° Southwest 318 366 43,000  Level FlightAware ADS-B
07:07PM 32.2697 -95.9200 240° Southwest 319 367 43,000  Level FlightAware ADS-B
07:08PM 32.2362 -95.9663 229° Southwest 320 368 43,000  Level FlightAware ADS-B
07:09PM 32.2010 -96.0095 226° Southwest 325 374 43,000  Level FlightAware ADS-B
07:09PM 32.1693 -96.0492 227° Southwest 327 376 43,000  Level FlightAware ADS-B
07:10PM 32.1315 -96.0959 226° Southwest 332 382 43,000  Level FlightAware ADS-B
07:10PM 32.0969 -96.1382 226° Southwest 336 387 43,000  Level FlightAware ADS-B
07:11PM 32.0640 -96.1784 226° Southwest 339 390 43,000  Level FlightAware ADS-B
07:11PM 32.0304 -96.2195 226° Southwest 342 394 43,000  Level FlightAware ADS-B
07:12PM 31.9947 -96.2630 226° Southwest 347 399 43,000  Level FlightAware ADS-B
07:12PM 31.9597 -96.3056 226° Southwest 350 403 43,000  Level FlightAware ADS-B
07:13PM 31.9249 -96.3481 226° Southwest 352 405 43,000  Level FlightAware ADS-B
07:13PM 31.8882 -96.3925 226° Southwest 355 409 43,000 -120 Level FlightAware ADS-B
07:14PM 31.8515 -96.4371 226° Southwest 363 418 42,900 -600 Descending FlightAware ADS-B
07:14PM 31.8149 -96.4813 226° Southwest 376 433 42,400 -1,020 Descending FlightAware ADS-B
07:15PM 31.7777 -96.5264 226° Southwest 381 438 41,900 -1,140 Descending FlightAware ADS-B
07:15PM 31.7391 -96.5730 226° Southwest 383 441 41,300 -1,320 Descending FlightAware ADS-B
07:16PM 31.6984 -96.6221 226° Southwest 380 437 40,500 -1,500 Descending FlightAware ADS-B
07:16PM 31.6599 -96.6684 226° Southwest 370 426 39,700 -1,620 Descending FlightAware ADS-B
07:17PM 31.6228 -96.7131 226° Southwest 357 411 38,800 -2,340 Descending FlightAware ADS-B
07:18PM 31.5870 -96.7562 226° Southwest 361 415 37,300 -2,880 Descending FlightAware ADS-B
07:18PM 31.5487 -96.8024 226° Southwest 376 433 35,800 -2,940 Descending FlightAware ADS-B
07:19PM 31.5087 -96.8505 226° Southwest 380 437 34,200 -3,060 Descending FlightAware ADS-B
07:19PM 31.4686 -96.8983 225° Southwest 375 432 32,500 -3,000 Descending FlightAware ADS-B
07:20PM 31.4306 -96.9437 226° Southwest 384 442 31,000 -3,060 Descending FlightAware ADS-B
07:20PM 31.3916 -96.9905 226° Southwest 405 466 29,400 -3,180 Descending FlightAware ADS-B
07:21PM 31.3518 -97.0380 226° Southwest 408 470 27,800 -3,180 Descending FlightAware ADS-B
07:21PM 31.3112 -97.0865 226° Southwest 415 478 26,200 -3,300 Descending FlightAware ADS-B
07:22PM 31.2702 -97.1352 225° Southwest 420 483 24,500 -3,420 Descending FlightAware ADS-B
07:22PM 31.2255 -97.1878 225° Southwest 397 457 22,600 -2,100 Descending FlightAware ADS-B
07:23PM 31.1654 -97.2253 208° Southwest 397 457 22,000 -1,500 Descending FlightAware ADS-B
07:23PM 31.1129 -97.2451 198° South 393 452 20,900 -2,820 Descending FlightAware ADS-B
07:24PM 31.0592 -97.2667 199° South 394 453 19,100 -3,240 Descending FlightAware ADS-B
07:24PM 31.0103 -97.2859 199° South 345 397 17,600 -2,580 Descending FlightAware ADS-B
07:25PM 30.9556 -97.3070 198° South 308 354 16,200 -2,160 Descending FlightAware ADS-B
07:26PM 30.9141 -97.3232 199° South 287 330 15,100 -1,800 Descending FlightAware ADS-B
07:26PM 30.8671 -97.3415 198° South 270 311 14,100 -780 Descending FlightAware ADS-B
07:27PM 30.8150 -97.3620 199° South 271 312 14,000 -120 Descending FlightAware
07:27PM 30.7954 -97.3700 199° South 272 313 14,000 120 Level FlightAware ADS-B
07:28PM 30.7648 -97.3858 204° Southwest 275 316 14,100 60 Climbing FlightAware ADS-B
07:28PM 30.7292 -97.4038 203° Southwest 275 316 14,100 -120 Level FlightAware ADS-B
07:29PM 30.7028 -97.4166 203° Southwest 278 320 14,000 -240 Descending FlightAware ADS-B
07:29PM 30.6981 -97.4180 194° South 281 323 14,000 -1,500 Level FlightAware ADS-B
07:29PM 30.6869 -97.4186 183° South 282 325 13,700 -2,820 Descending FlightAware ADS-B
07:30PM 30.6110 -97.3640 148° Southeast 295 339 10,500 -2,640 Descending FlightAware
07:30PM 30.5990 -97.3610 168° South 277 319 10,300 -780 Descending FlightAware
07:31PM 30.5709 -97.3846 216° Southwest 236 272 10,000 -360 Descending FlightAware ADS-B
07:31PM 30.5705 -97.3896 265° West 235 270 10,100 660 Climbing FlightAware ADS-B
07:31PM 30.5708 -97.3955 273° West 234 269 10,100  Level FlightAware ADS-B
07:31PM 30.5713 -97.3998 278° West 232 267 10,100 -180 Level FlightAware ADS-B
07:31PM 30.5755 -97.4363 278° West 208 239 10,000 -660 Descending FlightAware ADS-B
07:32PM 30.5774 -97.4529 278° West 210 242 9,600 -2,040 Descending FlightAware ADS-B
07:32PM 30.5793 -97.4728 276° West 215 247 8,900 -2,820 Descending FlightAware ADS-B
07:32PM 30.5807 -97.4878 276° West 225 259 8,200 -3,420 Descending FlightAware ADS-B
07:33PM 30.5740 -97.5440 262° West 215 247 5,300 -3,180 Descending FlightAware
07:33PM 30.5760 -97.5780 274° West 202 232 3,900 -2,280 Descending FlightAware
07:34PM 30.5780 -97.5940 278° West 189 217 3,600 -720 Descending FlightAware
07:34PM 30.5710 -97.6100 243° Southwest 179 206 3,500 -900 Descending FlightAware
07:34PM 30.5540 -97.6100 180° South 206 237 3,000 -1,380 Descending FlightAware
07:35PM 30.5380 -97.6060 168° South 208 239 2,700 -900 Descending FlightAware
07:35PM 30.5220 -97.6020 168° South 203 234 2,500 -600 Descending FlightAware